Time;durP1;ratioP1;P1;durP2;ratioP2;P2;SDS_P1;SDS_P2;PMS_P1;PMS_P2;Temp;Humidity;BMP_temperature;BMP_pressure;BME280_temperature;BME280_humidity;BME280_pressure;Samples;Min_cycle;Max_cycle;Signal;HPM_P1;HPM_P2
2022/11/17 00:00:42;;;;;;;3.13;1.00;;;23.20;64.90;;;;;;5074520;28;20180;-71
2022/11/17 00:03:19;;;;;;;1.47;0.60;;;22.90;76.50;;;;;;5073932;28;20250;-68
2022/11/17 00:05:46;;;;;;;1.97;0.70;;;22.80;82.40;;;;;;5074525;28;20186;-69
2022/11/17 00:08:14;;;;;;;1.37;0.53;;;22.40;78.80;;;;;;5074337;28;20232;-67
2022/11/17 00:10:42;;;;;;;1.17;0.57;;;22.80;72.90;;;;;;5074229;28;20176;-67
2022/11/17 00:15:55;;;;;;;1.33;0.60;;;23.60;64.20;;;;;;5074369;28;20249;-68
2022/11/17 00:21:20;;;;;;;1.70;0.60;;;22.80;62.70;;;;;;5074256;28;20288;-68
2022/11/17 00:23:48;;;;;;;5.03;0.87;;;21.90;64.00;;;;;;5074171;28;20187;-68
2022/11/17 00:26:18;;;;;;;1.80;0.57;;;21.90;68.80;;;;;;5073731;28;20221;-67
2022/11/17 00:28:45;;;;;;;1.23;0.60;;;22.20;64.50;;;;;;5074114;28;20175;-69
2022/11/17 00:34:05;;;;;;;2.20;0.60;;;21.40;64.40;;;;;;5074182;28;20273;-68
2022/11/17 00:36:58;;;;;;;0.87;0.57;;;20.80;73.50;;;;;;5073641;28;20188;-68
2022/11/17 00:39:26;;;;;;;1.87;0.90;;;21.10;79.70;;;;;;5073030;28;20258;-68
2022/11/17 00:41:54;;;;;;;1.07;0.50;;;22.00;71.10;;;;;;5073501;28;20174;-68
2022/11/17 00:44:21;;;;;;;1.70;0.57;;;23.00;69.90;;;;;;5073774;28;20189;-68
2022/11/17 00:46:49;;;;;;;2.67;0.60;;;23.30;66.40;;;;;;5073395;28;20218;-68
2022/11/17 00:49:18;;;;;;;1.07;0.30;;;23.60;54.00;;;;;;5073801;28;20194;-68
2022/11/17 00:51:46;;;;;;;0.60;0.43;;;22.90;57.30;;;;;;5073494;28;20265;-68
2022/11/17 00:54:14;;;;;;;1.17;0.50;;;22.00;53.60;;;;;;5073541;28;20179;-67
2022/11/17 00:56:41;;;;;;;0.43;0.43;;;21.40;55.60;;;;;;5073307;28;20204;-68
2022/11/17 00:59:09;;;;;;;1.27;0.80;;;21.90;62.50;;;;;;5073358;28;20311;-68
2022/11/17 01:01:38;;;;;;;1.90;0.70;;;22.80;58.60;;;;;;5073446;28;20210;-68
2022/11/17 01:04:07;;;;;;;3.83;0.90;;;22.40;55.70;;;;;;5073021;28;20267;-68
2022/11/17 01:06:37;;;;;;;4.23;0.63;;;21.60;54.90;;;;;;5073235;28;20202;-68
2022/11/17 01:09:09;;;;;;;2.03;0.60;;;21.30;59.90;;;;;;5073617;28;20653;-68
2022/11/17 01:11:36;;;;;;;1.87;0.60;;;21.50;59.60;;;;;;5073512;28;20262;-69
2022/11/17 01:14:04;;;;;;;2.00;0.70;;;22.50;57.10;;;;;;5088974;28;20234;-68
2022/11/17 01:16:32;;;;;;;4.73;0.70;;;23.90;56.80;;;;;;5072399;28;20228;-68
2022/11/17 01:19:01;;;;;;;1.60;0.70;;;24.70;64.90;;;;;;5073201;28;20219;-69
2022/11/17 01:21:30;;;;;;;2.53;0.83;;;25.20;60.30;;;;;;5073267;28;20207;-69
2022/11/17 01:23:59;;;;;;;1.40;0.40;;;25.00;66.00;;;;;;5073166;28;20262;-69
2022/11/17 01:26:35;;;;;;;1.37;0.83;;;23.70;61.20;;;;;;5073041;28;20237;-68
2022/11/17 01:29:05;;;;;;;4.20;0.80;;;24.10;67.20;;;;;;5073193;28;20264;-68
2022/11/17 01:31:35;;;;;;;8.23;0.77;;;24.80;55.70;;;;;;5073072;28;20199;-69
2022/11/17 01:34:02;;;;;;;1.03;0.50;;;25.20;56.40;;;;;;5073142;28;20176;-69
2022/11/17 01:39:21;;;;;;;1.27;0.60;;;24.10;52.30;;;;;;5072941;28;20692;-68
2022/11/17 01:41:49;;;;;;;0.80;0.40;;;24.50;55.60;;;;;;5072987;28;20167;-69
2022/11/17 01:44:43;;;;;;;2.17;0.70;;;24.50;54.20;;;;;;5073034;28;20183;-69
2022/11/17 01:47:20;;;;;;;3.27;0.60;;;23.60;46.90;;;;;;5073532;28;20203;-69
2022/11/17 01:49:54;;;;;;;0.70;0.50;;;24.30;47.50;;;;;;5073044;28;20171;-69
2022/11/17 01:52:22;;;;;;;2.57;0.50;;;24.60;49.30;;;;;;5073205;28;20171;-69
2022/11/17 01:54:49;;;;;;;0.63;0.50;;;24.10;47.10;;;;;;5072852;28;20186;-69
2022/11/17 01:57:26;;;;;;;1.43;0.50;;;23.90;50.80;;;;;;5072807;28;20172;-69
2022/11/17 02:00:06;;;;;;;2.27;0.60;;;23.60;49.40;;;;;;5073128;28;20231;-69
2022/11/17 02:02:35;;;;;;;2.17;0.80;;;23.30;50.60;;;;;;5072543;28;20175;-69
2022/11/17 02:05:19;;;;;;;4.63;0.80;;;23.90;51.70;;;;;;5072757;28;20245;-69
2022/11/17 02:07:50;;;;;;;3.70;0.60;;;24.80;58.80;;;;;;5072869;28;20183;-69
2022/11/17 02:10:18;;;;;;;1.93;0.60;;;24.30;51.50;;;;;;5072841;28;20637;-69
2022/11/17 02:12:52;;;;;;;1.83;0.60;;;24.10;53.80;;;;;;5072747;28;20207;-68
2022/11/17 02:15:20;;;;;;;2.23;0.70;;;23.40;50.80;;;;;;5072577;28;20192;-68
2022/11/17 02:17:48;;;;;;;1.33;0.60;;;23.20;50.80;;;;;;5072829;28;20183;-68
2022/11/17 02:20:45;;;;;;;1.40;0.60;;;24.20;54.00;;;;;;5072585;28;20665;-67
2022/11/17 02:23:41;;;;;;;2.50;0.80;;;25.10;53.50;;;;;;5072485;28;20164;-67
2022/11/17 02:26:40;;;;;;;3.47;0.90;;;25.00;53.20;;;;;;5072917;28;20172;-67
2022/11/17 02:29:16;;;;;;;4.37;1.03;;;23.70;54.80;;;;;;5076322;28;20550;-68
2022/11/17 02:32:10;;;;;;;4.53;1.07;;;22.80;55.50;;;;;;5091804;28;20597;-67
2022/11/17 02:34:43;;;;;;;6.63;0.90;;;22.50;61.00;;;;;;5073755;28;20206;-67
2022/11/17 02:37:47;;;;;;;2.70;0.97;;;22.20;58.80;;;;;;5076060;28;20233;-69
2022/11/17 02:40:26;;;;;;;1.97;0.70;;;21.90;64.70;;;;;;5072882;28;20227;-67
2022/11/17 02:45:57;;;;;;;3.93;0.70;;;21.80;77.70;;;;;;5076255;28;20182;-69
2022/11/17 02:48:37;;;;;;;4.30;0.80;;;21.60;78.10;;;;;;5076146;28;20211;-68
2022/11/17 02:51:07;;;;;;;3.43;1.30;;;22.10;84.80;;;;;;5075769;28;20190;-69
2022/11/17 02:53:35;;;;;;;2.50;0.70;;;23.00;83.60;;;;;;5076051;28;20176;-68
2022/11/17 02:56:02;;;;;;;2.70;0.97;;;23.20;80.90;;;;;;5075834;28;20184;-68
2022/11/17 02:58:30;;;;;;;2.67;0.93;;;23.40;76.70;;;;;;5075777;28;20212;-68
2022/11/17 03:01:07;;;;;;;2.60;0.90;;;23.10;69.40;;;;;;5075620;28;20168;-68
2022/11/17 03:04:09;;;;;;;4.00;0.70;;;23.00;83.10;;;;;;5075474;28;20227;-68
2022/11/17 03:06:59;;;;;;;2.63;0.80;;;23.50;77.60;;;;;;5075986;28;20207;-67
2022/11/17 03:09:38;;;;;;;2.27;0.80;;;23.80;81.30;;;;;;5075645;28;20233;-68
2022/11/17 03:12:42;;;;;;;2.33;0.87;;;23.60;78.80;;;;;;5076086;28;20174;-67
2022/11/17 03:15:32;;;;;;;3.90;0.97;;;23.10;72.50;;;;;;5072310;28;20199;-67
2022/11/17 03:18:11;;;;;;;4.47;1.27;;;23.10;81.80;;;;;;5075531;28;20190;-68
2022/11/17 03:20:57;;;;;;;3.07;1.10;;;22.70;77.80;;;;;;5075145;28;20603;-67
2022/11/17 03:23:36;;;;;;;3.03;0.93;;;22.40;78.80;;;;;;5075231;28;20589;-68
2022/11/17 03:26:08;;;;;;;3.10;1.10;;;22.30;72.70;;;;;;5075468;28;20168;-68
2022/11/17 03:28:41;;;;;;;2.87;0.90;;;21.90;80.90;;;;;;5075263;28;20297;-67
2022/11/17 03:31:10;;;;;;;4.77;0.90;;;21.50;91.10;;;;;;5075466;28;20207;-67
2022/11/17 03:33:42;;;;;;;5.97;1.37;;;21.40;92.60;;;;;;5075380;28;20651;-69
2022/11/17 03:36:20;;;;;;;1.87;0.90;;;21.50;93.70;;;;;;5090764;28;20183;-69
2022/11/17 03:39:05;;;;;;;4.17;0.80;;;21.60;93.20;;;;;;5074198;28;20685;-69
2022/11/17 03:41:38;;;;;;;6.00;1.23;;;21.90;97.20;;;;;;5075027;28;20176;-69
2022/11/17 03:44:07;;;;;;;2.17;0.83;;;22.90;98.00;;;;;;5075106;28;20317;-69
2022/11/17 03:46:37;;;;;;;6.37;1.20;;;22.60;90.90;;;;;;5074663;28;20255;-69
2022/11/17 03:49:22;;;;;;;2.00;1.00;;;22.30;92.10;;;;;;5074820;28;20179;-69
2022/11/17 03:51:50;;;;;;;4.20;1.10;;;21.60;90.10;;;;;;5075113;28;20176;-68
2022/11/17 03:54:20;;;;;;;3.03;1.00;;;21.10;93.40;;;;;;5074834;28;20195;-68
2022/11/17 03:57:03;;;;;;;4.60;1.10;;;20.60;95.40;;;;;;5074619;28;20168;-68
2022/11/17 03:59:42;;;;;;;3.83;1.23;;;20.60;97.00;;;;;;5074974;28;20276;-68
2022/11/17 04:02:17;;;;;;;2.40;0.90;;;21.30;99.90;;;;;;5074595;28;20255;-68
2022/11/17 04:07:30;;;;;;;1.77;1.10;;;21.30;98.10;;;;;;5074536;28;20591;-68
2022/11/17 04:09:57;;;;;;;2.03;0.80;;;21.70;99.90;;;;;;5074322;28;20167;-68
2022/11/17 04:17:56;;;;;;;2.93;1.20;;;21.70;97.60;;;;;;5074370;28;20182;-68
2022/11/17 04:20:24;;;;;;;5.80;1.10;;;21.70;99.00;;;;;;5074107;28;20216;-70
2022/11/17 04:23:06;;;;;;;2.03;0.93;;;21.70;97.40;;;;;;5073921;28;20270;-68
2022/11/17 04:28:38;;;;;;;1.87;0.80;;;21.60;99.40;;;;;;5074415;28;20190;-70
2022/11/17 04:31:21;;;;;;;4.33;1.20;;;21.40;97.10;;;;;;5074010;28;20277;-70
2022/11/17 04:34:00;;;;;;;2.93;1.13;;;21.60;99.90;;;;;;5074060;28;20629;-70
2022/11/17 04:36:34;;;;;;;2.60;0.97;;;21.30;99.90;;;;;;5073984;28;20191;-69
2022/11/17 04:39:02;;;;;;;2.23;0.90;;;20.60;99.90;;;;;;5073591;28;20291;-67
2022/11/17 04:44:17;;;;;;;3.73;1.20;;;20.20;99.90;;;;;;5073925;28;20699;-68
2022/11/17 04:46:46;;;;;;;11.20;1.40;;;20.20;99.90;;;;;;5073828;28;20260;-69
2022/11/17 04:49:19;;;;;;;4.20;1.10;;;20.20;99.90;;;;;;5073566;28;20203;-67
2022/11/17 04:51:47;;;;;;;3.30;0.90;;;20.00;99.90;;;;;;5074037;28;20180;-67
2022/11/17 04:54:17;;;;;;;3.93;0.97;;;20.30;99.90;;;;;;5073419;28;20185;-67
2022/11/17 04:56:45;;;;;;;2.87;0.90;;;20.50;99.90;;;;;;5073447;28;20527;-68
2022/11/17 04:59:12;;;;;;;3.23;1.20;;;20.60;99.90;;;;;;5073507;28;20205;-68
2022/11/17 05:01:40;;;;;;;7.87;1.00;;;21.30;99.90;;;;;;5073247;28;20176;-69
2022/11/17 05:04:10;;;;;;;3.27;1.10;;;21.60;99.90;;;;;;5073220;28;20261;-70
2022/11/17 05:06:42;;;;;;;3.93;0.97;;;21.80;99.90;;;;;;5073441;28;20176;-68
2022/11/17 05:09:12;;;;;;;10.60;1.10;;;22.10;99.90;;;;;;5073385;28;20183;-69
2022/11/17 05:14:27;;;;;;;2.27;0.67;;;22.70;99.90;;;;;;5073852;28;20628;-71
2022/11/17 05:17:04;;;;;;;4.27;0.80;;;22.90;99.90;;;;;;5073266;28;20579;-71
2022/11/17 05:19:33;;;;;;;3.13;0.80;;;22.40;94.90;;;;;;5073188;28;20218;-70
2022/11/17 05:22:01;;;;;;;5.80;1.00;;;21.80;98.80;;;;;;5073639;28;20174;-70
2022/11/17 05:24:29;;;;;;;2.23;0.80;;;22.00;97.90;;;;;;5073248;28;20306;-72
2022/11/17 05:26:56;;;;;;;4.60;0.80;;;22.00;99.90;;;;;;5073110;28;20172;-70
2022/11/17 05:29:24;;;;;;;2.47;0.80;;;22.20;97.80;;;;;;5073414;28;20187;-71
2022/11/17 05:31:51;;;;;;;5.73;1.03;;;22.40;94.70;;;;;;5073297;28;20549;-71
2022/11/17 05:34:19;;;;;;;3.00;0.97;;;22.40;97.60;;;;;;5073289;28;20180;-68
2022/11/17 05:36:49;;;;;;;4.80;0.80;;;22.30;96.80;;;;;;5073296;28;20645;-68
2022/11/17 05:39:16;;;;;;;2.00;0.77;;;22.40;99.90;;;;;;5073008;28;20261;-69
2022/11/17 05:41:44;;;;;;;5.67;0.70;;;22.50;93.50;;;;;;5073040;28;20654;-68
2022/11/17 05:44:11;;;;;;;3.97;0.53;;;22.30;93.30;;;;;;5072943;28;20179;-68
2022/11/17 05:46:38;;;;;;;1.80;0.80;;;22.40;96.40;;;;;;5073218;28;20176;-68
2022/11/17 05:49:06;;;;;;;3.27;1.00;;;22.10;94.00;;;;;;5072961;28;20652;-68
2022/11/17 05:51:34;;;;;;;6.20;0.90;;;22.00;99.70;;;;;;5072914;28;20620;-68
2022/11/17 05:54:01;;;;;;;1.30;0.70;;;22.20;96.80;;;;;;5072830;28;20190;-68
2022/11/17 05:57:01;;;;;;;3.93;0.93;;;22.20;99.00;;;;;;5072793;28;20168;-68
2022/11/17 05:59:34;;;;;;;3.63;0.90;;;22.30;99.30;;;;;;5072922;28;20697;-67
2022/11/17 06:02:28;;;;;;;5.70;1.20;;;21.60;99.60;;;;;;5073998;28;20206;-68
2022/11/17 06:04:56;;;;;;;4.10;1.10;;;21.60;99.90;;;;;;5076884;28;20198;-70
2022/11/17 06:07:23;;;;;;;5.50;1.00;;;21.70;99.90;;;;;;5076893;28;20175;-68
2022/11/17 06:09:51;;;;;;;6.07;0.90;;;21.90;99.90;;;;;;5076670;28;20657;-69
2022/11/17 06:12:18;;;;;;;5.77;1.17;;;21.40;99.90;;;;;;5076797;28;20226;-70
2022/11/17 06:14:46;;;;;;;2.73;0.83;;;21.30;99.90;;;;;;5076440;28;20199;-71
2022/11/17 06:17:24;;;;;;;3.13;1.10;;;21.50;99.90;;;;;;5076482;28;20544;-69
2022/11/17 06:20:09;;;;;;;1.37;0.83;;;21.10;99.90;;;;;;5076305;28;20571;-69
2022/11/17 06:22:37;;;;;;;3.10;0.90;;;21.30;99.90;;;;;;5076393;28;20207;-69
2022/11/17 06:25:07;;;;;;;7.63;0.93;;;21.60;99.90;;;;;;5076213;28;20533;-69
2022/11/17 06:27:37;;;;;;;2.00;0.70;;;21.70;99.90;;;;;;5076344;28;20207;-70
2022/11/17 06:30:06;;;;;;;4.10;1.10;;;21.70;99.90;;;;;;5076161;28;20583;-70
2022/11/17 06:32:36;;;;;;;8.73;1.30;;;21.70;99.90;;;;;;5076383;28;20208;-70
2022/11/17 06:35:07;;;;;;;3.03;1.03;;;21.40;99.90;;;;;;5076495;28;20172;-69
2022/11/17 06:37:35;;;;;;;1.90;0.77;;;21.20;99.90;;;;;;5076267;28;20622;-68
2022/11/17 06:40:03;;;;;;;3.80;0.90;;;20.90;99.90;;;;;;5075964;28;20208;-69
2022/11/17 06:45:24;;;;;;;1.43;0.73;;;20.70;99.90;;;;;;5074915;28;20193;-69
2022/11/17 06:47:53;;;;;;;3.87;1.00;;;20.90;99.90;;;;;;5076139;28;20632;-67
2022/11/17 06:50:21;;;;;;;5.37;1.00;;;20.70;99.90;;;;;;5076105;28;20710;-68
2022/11/17 06:52:48;;;;;;;6.90;1.13;;;20.60;99.90;;;;;;5076010;28;20168;-68
2022/11/17 06:55:16;;;;;;;1.20;0.80;;;20.60;99.90;;;;;;5076002;28;20172;-69
2022/11/17 06:57:44;;;;;;;2.93;0.80;;;20.60;99.90;;;;;;5075920;28;20174;-68
2022/11/17 07:00:13;;;;;;;9.00;1.30;;;20.40;99.90;;;;;;5091479;28;20211;-68
2022/11/17 07:02:40;;;;;;;2.23;0.80;;;20.30;99.90;;;;;;5075386;28;20230;-68
2022/11/17 07:05:08;;;;;;;5.80;1.13;;;20.20;99.90;;;;;;5075719;28;20253;-69
2022/11/17 07:07:35;;;;;;;3.03;1.17;;;20.10;99.90;;;;;;5075508;28;20329;-69
2022/11/17 07:10:03;;;;;;;3.30;0.70;;;20.10;99.90;;;;;;5075518;28;20183;-69
2022/11/17 07:12:30;;;;;;;7.63;1.30;;;20.20;99.90;;;;;;5075693;28;20179;-68
2022/11/17 07:14:57;;;;;;;7.00;1.23;;;20.10;99.90;;;;;;5074482;28;20177;-68
2022/11/17 07:17:25;;;;;;;2.63;0.80;;;20.10;99.90;;;;;;5075314;28;20657;-69
2022/11/17 07:19:53;;;;;;;4.80;1.10;;;19.90;99.90;;;;;;5075437;28;20683;-69
2022/11/17 07:22:20;;;;;;;8.90;1.17;;;20.00;99.90;;;;;;5075109;28;20239;-68
2022/11/17 07:24:48;;;;;;;4.37;0.97;;;19.80;99.90;;;;;;5075415;28;20249;-68
2022/11/17 07:27:15;;;;;;;3.17;0.60;;;19.70;99.90;;;;;;5075050;28;20540;-69
2022/11/17 07:29:42;;;;;;;8.43;1.47;;;19.70;99.90;;;;;;5075284;28;20221;-68
2022/11/17 07:32:12;;;;;;;2.00;0.83;;;19.70;99.90;;;;;;5075091;28;20700;-67
2022/11/17 07:34:41;;;;;;;3.60;0.73;;;19.70;99.90;;;;;;5075290;28;20623;-68
2022/11/17 07:37:08;;;;;;;3.90;0.80;;;19.80;99.90;;;;;;5074911;28;20164;-67
2022/11/17 07:39:36;;;;;;;7.23;1.00;;;19.70;99.90;;;;;;5075392;28;20239;-68
2022/11/17 07:42:03;;;;;;;4.80;0.87;;;19.60;99.90;;;;;;5074722;28;20222;-68
2022/11/17 07:44:31;;;;;;;3.47;0.97;;;19.40;99.90;;;;;;5074917;28;20210;-67
2022/11/17 07:46:58;;;;;;;3.50;1.20;;;19.00;99.90;;;;;;5074853;28;20164;-68
2022/11/17 07:49:27;;;;;;;2.40;0.70;;;18.80;99.90;;;;;;5074995;28;20186;-68
2022/11/17 07:51:58;;;;;;;3.03;0.83;;;18.90;99.90;;;;;;5074878;28;20309;-69
2022/11/17 07:54:25;;;;;;;3.80;0.90;;;19.00;99.90;;;;;;5075188;28;20550;-69
2022/11/17 07:56:52;;;;;;;3.50;0.80;;;18.90;99.90;;;;;;5074631;28;20187;-69
2022/11/17 07:59:20;;;;;;;5.10;0.77;;;18.70;99.90;;;;;;5074530;28;20207;-67
2022/11/17 08:01:48;;;;;;;3.67;0.90;;;18.60;99.90;;;;;;5074503;28;20183;-71
2022/11/17 08:04:15;;;;;;;3.87;0.87;;;18.40;99.90;;;;;;5074199;28;20227;-70
2022/11/17 08:06:42;;;;;;;3.83;0.93;;;18.30;99.90;;;;;;5074302;28;20187;-69
2022/11/17 08:09:13;;;;;;;1.87;0.73;;;18.10;99.90;;;;;;5074526;28;20176;-67
2022/11/17 08:11:40;;;;;;;3.70;0.70;;;18.00;99.90;;;;;;5074528;28;20683;-67
2022/11/17 08:14:07;;;;;;;3.80;1.00;;;17.90;99.90;;;;;;5074852;28;20171;-68
2022/11/17 08:16:35;;;;;;;4.70;1.00;;;17.80;99.90;;;;;;5074144;28;20177;-68
2022/11/17 08:19:04;;;;;;;6.93;1.00;;;17.80;99.90;;;;;;5074046;28;20192;-68
2022/11/17 08:21:32;;;;;;;10.23;1.00;;;17.60;99.90;;;;;;5074605;28;20259;-68
2022/11/17 08:24:00;;;;;;;4.47;1.23;;;17.50;99.90;;;;;;5073964;28;20648;-68
2022/11/17 08:26:27;;;;;;;3.67;0.70;;;17.50;99.90;;;;;;5073737;28;20578;-68
2022/11/17 08:28:57;;;;;;;3.27;1.20;;;17.40;99.90;;;;;;5074031;28;20180;-68
2022/11/17 08:31:24;;;;;;;5.87;0.80;;;17.30;99.90;;;;;;5073930;28;20207;-68
2022/11/17 08:33:52;;;;;;;2.70;0.93;;;17.20;99.90;;;;;;5073951;28;20576;-68
2022/11/17 08:36:19;;;;;;;3.30;1.07;;;17.20;99.90;;;;;;5073818;28;20211;-68
2022/11/17 08:38:46;;;;;;;5.63;1.40;;;17.10;99.90;;;;;;5073814;28;20203;-68
2022/11/17 08:41:14;;;;;;;3.00;0.87;;;17.10;99.90;;;;;;5089466;28;20182;-67
2022/11/17 08:43:41;;;;;;;3.53;1.10;;;17.00;99.90;;;;;;5073667;28;20172;-69
2022/11/17 08:46:12;;;;;;;4.70;1.00;;;16.90;99.90;;;;;;5073757;28;20249;-69
2022/11/17 08:48:40;;;;;;;2.90;0.70;;;16.80;99.90;;;;;;5073484;28;20641;-69
2022/11/17 08:51:08;;;;;;;6.30;0.97;;;16.70;99.90;;;;;;5089170;28;20186;-70
2022/11/17 08:53:36;;;;;;;3.87;0.90;;;16.70;99.90;;;;;;5073727;28;20183;-69
2022/11/17 08:56:08;;;;;;;8.37;1.40;;;16.60;99.90;;;;;;5073590;28;20539;-70
2022/11/17 08:58:42;;;;;;;5.70;1.20;;;16.60;99.90;;;;;;5073516;28;20290;-69
2022/11/17 09:01:11;;;;;;;6.30;0.97;;;16.50;99.90;;;;;;5073535;28;20580;-71
2022/11/17 09:03:41;;;;;;;5.20;1.23;;;16.50;99.90;;;;;;5073186;28;20306;-68
2022/11/17 09:06:08;;;;;;;7.77;1.30;;;16.50;99.90;;;;;;5073376;28;20176;-69
2022/11/17 09:08:36;;;;;;;4.97;1.13;;;16.50;99.90;;;;;;5073500;28;20176;-72
2022/11/17 09:11:08;;;;;;;4.17;1.10;;;16.40;99.90;;;;;;5073410;28;20218;-71
2022/11/17 09:13:36;;;;;;;5.67;1.43;;;16.40;99.90;;;;;;5073449;28;20180;-70
2022/11/17 09:16:05;;;;;;;8.53;1.37;;;16.50;99.90;;;;;;5073265;28;20195;-71
2022/11/17 09:18:35;;;;;;;4.70;1.20;;;16.40;99.90;;;;;;5073241;28;20210;-72
2022/11/17 09:21:09;;;;;;;4.90;0.90;;;16.30;99.90;;;;;;5073197;28;20468;-71
2022/11/17 09:23:36;;;;;;;5.37;0.93;;;16.30;99.90;;;;;;5073217;28;20207;-71
2022/11/17 09:26:11;;;;;;;6.93;1.37;;;16.30;99.90;;;;;;5073195;28;20172;-71
2022/11/17 09:28:39;;;;;;;5.80;1.27;;;16.30;99.90;;;;;;5073642;28;20652;-70
2022/11/17 09:31:24;;;;;;;5.73;1.30;;;16.20;99.90;;;;;;5072986;28;20179;-70
2022/11/17 09:33:51;;;;;;;6.63;1.33;;;16.20;99.90;;;;;;5073217;28;20191;-68
2022/11/17 09:36:19;;;;;;;8.30;1.67;;;16.30;99.90;;;;;;5072391;28;20168;-71
2022/11/17 09:38:47;;;;;;;4.17;1.20;;;16.20;99.90;;;;;;5072957;28;20234;-71
2022/11/17 09:41:22;;;;;;;3.40;1.10;;;16.20;99.90;;;;;;5073037;28;20288;-71
2022/11/17 09:44:01;;;;;;;8.20;1.50;;;16.10;99.90;;;;;;5073603;28;20172;-71
2022/11/17 09:46:58;;;;;;;5.87;1.20;;;16.10;99.90;;;;;;5073323;28;20232;-69
2022/11/17 09:49:55;;;;;;;4.43;1.30;;;16.10;99.90;;;;;;5063195;28;20230;-69
2022/11/17 09:52:57;;;;;;;6.00;1.30;;;16.10;99.90;;;;;;5072962;28;20190;-70
2022/11/17 09:55:33;;;;;;;10.13;1.63;;;16.10;99.90;;;;;;5072404;28;20176;-71
2022/11/17 09:58:12;;;;;;;7.17;1.53;;;16.00;99.90;;;;;;5073375;28;20262;-70
2022/11/17 10:00:43;;;;;;;4.20;1.50;;;16.00;99.90;;;;;;5073034;28;20199;-71
2022/11/17 10:03:22;;;;;;;6.37;2.17;;;16.00;99.90;;;;;;5072537;28;20277;-71
2022/11/17 10:05:50;;;;;;;6.37;1.90;;;15.90;99.90;;;;;;5072693;28;20184;-71
2022/11/17 10:08:41;;;;;;;8.73;1.83;;;15.80;99.90;;;;;;5072668;28;20222;-72
2022/11/17 10:11:31;;;;;;;4.20;1.53;;;15.70;99.90;;;;;;5062668;28;20188;-70
2022/11/17 10:14:14;;;;;;;5.20;1.60;;;15.80;99.90;;;;;;5072867;28;20191;-68
2022/11/17 10:16:54;;;;;;;7.13;1.57;;;15.80;99.90;;;;;;5072663;28;20183;-68
2022/11/17 10:19:32;;;;;;;3.97;1.27;;;15.70;99.90;;;;;;5072877;28;20294;-69
2022/11/17 10:22:05;;;;;;;10.90;1.87;;;15.60;99.90;;;;;;5072727;28;20577;-68
2022/11/17 10:24:36;;;;;;;7.83;1.53;;;15.60;99.90;;;;;;5073021;28;20284;-68
2022/11/17 10:27:15;;;;;;;5.33;1.93;;;15.60;99.90;;;;;;5073124;28;20249;-69
2022/11/17 10:30:01;;;;;;;8.43;1.53;;;15.60;99.90;;;;;;5073192;28;20184;-69
2022/11/17 10:32:31;;;;;;;8.83;1.77;;;15.60;99.90;;;;;;5072783;28;20180;-68
2022/11/17 10:35:17;;;;;;;6.03;1.73;;;15.50;99.90;;;;;;5072802;28;20621;-69
2022/11/17 10:38:14;;;;;;;5.50;1.60;;;15.40;99.90;;;;;;5072682;28;20527;-67
2022/11/17 10:40:42;;;;;;;6.03;2.07;;;15.40;99.90;;;;;;5069327;28;20633;-68
2022/11/17 10:43:12;;;;;;;7.87;1.77;;;15.30;99.90;;;;;;5072352;28;20184;-68
2022/11/17 10:45:45;;;;;;;4.17;1.67;;;15.20;99.90;;;;;;5072305;28;20179;-68
2022/11/17 10:48:26;;;;;;;8.20;1.90;;;15.20;99.90;;;;;;5073774;28;20547;-69
2022/11/17 10:50:56;;;;;;;8.33;1.63;;;15.20;99.90;;;;;;5076095;28;20176;-68
2022/11/17 10:53:42;;;;;;;7.30;1.70;;;15.20;99.90;;;;;;5076114;28;20168;-69
2022/11/17 10:56:23;;;;;;;7.83;2.10;;;15.20;99.90;;;;;;5075809;28;20570;-68
2022/11/17 10:59:08;;;;;;;9.67;2.30;;;15.10;99.90;;;;;;5075702;28;20199;-68
2022/11/17 11:01:42;;;;;;;6.33;1.80;;;15.10;99.90;;;;;;5075947;28;20207;-69
2022/11/17 11:04:40;;;;;;;9.17;2.43;;;15.00;99.90;;;;;;5075547;28;20243;-69
2022/11/17 11:07:21;;;;;;;11.47;2.67;;;15.00;99.90;;;;;;5075661;28;20191;-71
2022/11/17 11:10:10;;;;;;;10.17;2.07;;;15.00;99.90;;;;;;5075766;28;20261;-70
2022/11/17 11:12:59;;;;;;;4.00;1.77;;;15.00;99.90;;;;;;5076056;28;20685;-67
2022/11/17 11:15:34;;;;;;;7.80;1.87;;;15.00;99.90;;;;;;5075508;28;20314;-68
2022/11/17 11:18:22;;;;;;;8.20;1.90;;;14.90;99.90;;;;;;5075591;28;20175;-69
2022/11/17 11:21:11;;;;;;;7.53;2.13;;;14.90;99.90;;;;;;5075117;28;20211;-71
2022/11/17 11:24:02;;;;;;;6.30;2.20;;;14.80;99.90;;;;;;5075421;28;20233;-71
2022/11/17 11:26:54;;;;;;;8.00;2.23;;;14.80;99.90;;;;;;5075292;28;20729;-67
2022/11/17 11:29:34;;;;;;;9.93;1.93;;;14.90;99.90;;;;;;5090894;28;20184;-68
2022/11/17 11:32:15;;;;;;;7.47;2.00;;;14.90;99.90;;;;;;5075341;28;20187;-67
2022/11/17 11:35:09;;;;;;;10.07;1.80;;;14.80;99.90;;;;;;5075158;28;20555;-67
2022/11/17 11:37:49;;;;;;;6.03;2.27;;;14.90;99.90;;;;;;5075260;28;20229;-67
2022/11/17 11:40:30;;;;;;;9.00;2.33;;;14.90;99.90;;;;;;5075147;28;20211;-67
2022/11/17 11:43:20;;;;;;;7.67;2.07;;;14.90;99.90;;;;;;5075078;28;20584;-67
2022/11/17 11:46:21;;;;;;;7.10;1.70;;;15.00;99.90;;;;;;5075024;28;20189;-67
2022/11/17 11:48:51;;;;;;;5.93;2.03;;;15.00;99.90;;;;;;5075001;28;20172;-67
2022/11/17 11:51:28;;;;;;;9.83;1.87;;;15.00;99.90;;;;;;5075053;28;20177;-67
2022/11/17 11:54:31;;;;;;;6.77;1.63;;;14.90;99.90;;;;;;5074924;28;20194;-68
2022/11/17 11:56:59;;;;;;;9.00;1.77;;;15.00;99.90;;;;;;5069790;28;20547;-67
2022/11/17 11:59:39;;;;;;;7.70;1.90;;;14.90;99.90;;;;;;5074087;28;20214;-68
2022/11/17 12:02:17;;;;;;;7.17;1.80;;;14.90;99.90;;;;;;5074747;28;20186;-67
2022/11/17 12:05:23;;;;;;;8.63;1.77;;;14.90;99.90;;;;;;5074807;28;20199;-67
2022/11/17 12:08:04;;;;;;;9.70;2.20;;;14.90;99.90;;;;;;5074661;28;20201;-68
2022/11/17 12:10:32;;;;;;;6.60;1.73;;;15.00;99.90;;;;;;5074390;28;20527;-68
2022/11/17 12:13:01;;;;;;;8.47;1.93;;;15.10;99.90;;;;;;5074455;28;20190;-67
2022/11/17 12:15:30;;;;;;;9.17;1.80;;;15.10;99.90;;;;;;5074222;28;20176;-68
2022/11/17 12:17:58;;;;;;;6.57;1.77;;;15.20;99.90;;;;;;5074421;28;20179;-67
2022/11/17 12:20:55;;;;;;;7.10;2.10;;;15.20;99.90;;;;;;5074280;28;20207;-68
2022/11/17 12:23:32;;;;;;;14.80;2.57;;;15.20;99.90;;;;;;5074084;28;20205;-68
2022/11/17 12:26:01;;;;;;;6.27;1.40;;;15.20;99.90;;;;;;5074356;28;20194;-67
2022/11/17 12:28:42;;;;;;;7.67;1.80;;;15.20;99.90;;;;;;5074032;28;20250;-67
2022/11/17 12:31:10;;;;;;;5.83;1.57;;;15.20;99.90;;;;;;5074253;28;20171;-67
2022/11/17 12:33:53;;;;;;;8.87;1.47;;;15.20;99.90;;;;;;5074098;28;20179;-67
2022/11/17 12:36:30;;;;;;;10.27;2.03;;;15.20;99.90;;;;;;5074194;28;20164;-67
2022/11/17 12:39:35;;;;;;;7.07;1.80;;;15.20;99.90;;;;;;5073973;28;20249;-67
2022/11/17 12:42:07;;;;;;;8.20;2.47;;;15.20;99.90;;;;;;5073577;28;20183;-67
2022/11/17 12:44:38;;;;;;;8.67;3.37;;;15.20;99.90;;;;;;5073876;28;20702;-67
2022/11/17 12:47:23;;;;;;;4.03;1.73;;;15.30;99.90;;;;;;5073905;28;20169;-67
2022/11/17 12:50:12;;;;;;;13.73;1.87;;;15.30;99.90;;;;;;5073994;28;20263;-67
2022/11/17 12:53:01;;;;;;;10.80;2.33;;;15.20;99.90;;;;;;5073965;28;20207;-67
2022/11/17 12:56:02;;;;;;;10.73;1.87;;;15.30;99.90;;;;;;5073810;28;20225;-67
2022/11/17 12:58:42;;;;;;;6.97;1.60;;;15.20;99.90;;;;;;5073454;28;20641;-67
2022/11/17 13:01:23;;;;;;;9.23;1.80;;;15.20;99.90;;;;;;5074116;28;20186;-67
2022/11/17 13:04:01;;;;;;;6.77;1.50;;;15.20;99.90;;;;;;5073210;28;20229;-68
2022/11/17 13:06:29;;;;;;;8.13;1.47;;;15.20;99.90;;;;;;5073750;28;20215;-68
2022/11/17 13:08:59;;;;;;;10.90;1.77;;;15.20;99.90;;;;;;5072202;28;20281;-68
2022/11/17 13:11:28;;;;;;;9.27;1.80;;;15.20;99.90;;;;;;5072498;28;20194;-68
2022/11/17 13:14:16;;;;;;;8.17;1.53;;;15.20;99.90;;;;;;5073480;28;20258;-68
2022/11/17 13:16:50;;;;;;;7.37;1.53;;;15.20;99.90;;;;;;5073499;28;20240;-68
2022/11/17 13:19:37;;;;;;;6.77;1.53;;;15.20;99.90;;;;;;5073350;28;20240;-67
2022/11/17 13:22:15;;;;;;;6.70;1.53;;;15.20;99.90;;;;;;5073699;28;20203;-67
2022/11/17 13:24:46;;;;;;;5.63;1.07;;;15.20;99.90;;;;;;5073230;28;20178;-68
2022/11/17 13:27:31;;;;;;;12.13;3.40;;;15.30;99.90;;;;;;5073372;28;20218;-68
2022/11/17 13:30:30;;;;;;;8.17;1.60;;;15.20;99.90;;;;;;5073482;28;20171;-71
2022/11/17 13:33:01;;;;;;;5.73;1.63;;;15.20;99.90;;;;;;5073218;28;20544;-70
2022/11/17 13:35:33;;;;;;;13.70;1.80;;;15.20;99.90;;;;;;5073125;28;20174;-69
2022/11/17 13:38:19;;;;;;;9.13;2.03;;;15.10;99.90;;;;;;5073316;28;20172;-70
2022/11/17 13:40:50;;;;;;;5.57;1.67;;;15.10;99.90;;;;;;5073099;28;20249;-70
2022/11/17 13:43:20;;;;;;;13.70;2.37;;;15.20;99.90;;;;;;5073126;28;20171;-68
2022/11/17 13:45:50;;;;;;;6.70;1.70;;;15.20;99.90;;;;;;5073406;28;20254;-72
2022/11/17 13:48:35;;;;;;;8.77;1.50;;;15.20;99.90;;;;;;5073241;28;20178;-68
2022/11/17 13:51:23;;;;;;;3.23;1.47;;;15.10;99.90;;;;;;5073023;28;20693;-70
2022/11/17 13:54:11;;;;;;;5.53;1.47;;;15.10;99.90;;;;;;5073106;28;20675;-69
2022/11/17 13:56:46;;;;;;;6.83;1.80;;;15.10;99.90;;;;;;5073208;28;20168;-70